Time;durP1;ratioP1;P1;durP2;ratioP2;P2;SDS_P1;SDS_P2;PMS_P1;PMS_P2;Temp;Humidity;BMP_temperature;BMP_pressure;BME280_temperature;BME280_humidity;BME280_pressure;Samples;Min_cycle;Max_cycle;Signal;HPM_P1;HPM_P2
2022/10/28 00:01:02;;;;;;;11.90;7.65;;;16.40;99.90;;;;;;5091743;28;20214;-49
2022/10/28 00:03:28;;;;;;;14.75;7.57;;;16.40;99.90;;;;;;5091877;28;20230;-50
2022/10/28 00:05:59;;;;;;;13.30;7.53;;;16.40;99.90;;;;;;5091741;28;20169;-50
2022/10/28 00:08:26;;;;;;;14.77;7.05;;;16.30;99.90;;;;;;5091679;28;20539;-49
2022/10/28 00:10:53;;;;;;;14.80;7.38;;;16.40;99.90;;;;;;5091458;28;20157;-50
2022/10/28 00:13:19;;;;;;;14.35;6.68;;;16.50;99.90;;;;;;5091834;28;20173;-50
2022/10/28 00:15:44;;;;;;;12.40;6.75;;;16.30;99.90;;;;;;5091802;28;20162;-49
2022/10/28 00:18:10;;;;;;;11.45;6.78;;;16.30;99.90;;;;;;5091516;28;20165;-50
2022/10/28 00:20:35;;;;;;;13.60;6.97;;;16.20;99.90;;;;;;5091494;28;20168;-49
2022/10/28 00:23:01;;;;;;;13.15;6.20;;;16.40;99.90;;;;;;5091484;28;20162;-50
2022/10/28 00:25:27;;;;;;;19.35;7.13;;;16.40;99.90;;;;;;5091526;28;20161;-50
2022/10/28 00:27:52;;;;;;;17.58;7.00;;;16.50;99.90;;;;;;5091524;28;20252;-50
2022/10/28 00:30:18;;;;;;;15.93;5.97;;;16.50;99.90;;;;;;5091435;28;20219;-49
2022/10/28 00:32:43;;;;;;;12.40;5.70;;;16.40;99.90;;;;;;5091723;28;20201;-49
2022/10/28 00:35:09;;;;;;;8.55;5.70;;;16.50;99.90;;;;;;5091417;28;20169;-49
2022/10/28 00:37:34;;;;;;;14.38;6.38;;;16.50;99.90;;;;;;5091678;28;20785;-49
2022/10/28 00:40:00;;;;;;;12.02;5.85;;;16.50;99.90;;;;;;5091355;28;20166;-50
2022/10/28 00:42:25;;;;;;;10.13;6.15;;;16.50;99.90;;;;;;5091276;28;20193;-51
2022/10/28 00:44:54;;;;;;;11.68;5.53;;;16.50;99.90;;;;;;5091386;28;20165;-49
2022/10/28 00:47:27;;;;;;;9.85;5.88;;;16.50;99.90;;;;;;5094946;28;20180;-50
2022/10/28 00:49:57;;;;;;;10.57;5.25;;;16.60;99.90;;;;;;5094948;28;20552;-50
2022/10/28 00:52:27;;;;;;;16.30;5.97;;;16.40;99.90;;;;;;5094828;28;20205;-50
2022/10/28 00:54:54;;;;;;;11.90;5.72;;;16.50;99.90;;;;;;5094918;28;20792;-49
2022/10/28 00:57:24;;;;;;;14.00;6.78;;;16.50;99.90;;;;;;5094812;28;20162;-49
2022/10/28 00:59:52;;;;;;;13.98;6.57;;;16.40;99.90;;;;;;5094681;28;20290;-50
2022/10/28 01:02:18;;;;;;;16.70;6.35;;;16.40;99.90;;;;;;5076523;28;20621;-50
2022/10/28 01:04:46;;;;;;;13.70;5.90;;;16.50;99.90;;;;;;5094906;28;20232;-51
2022/10/28 01:07:13;;;;;;;13.38;6.28;;;16.60;99.90;;;;;;5094919;28;20248;-51
2022/10/28 01:09:39;;;;;;;14.32;5.65;;;16.60;99.90;;;;;;5094556;28;20197;-51
2022/10/28 01:12:19;;;;;;;13.35;5.80;;;16.60;99.90;;;;;;5094433;28;20243;-50
2022/10/28 01:15:36;;;;;;;11.02;5.65;;;16.60;99.90;;;;;;5094494;28;20161;-51
2022/10/28 01:18:07;;;;;;;14.00;5.20;;;16.40;99.90;;;;;;5049139;28;20185;-50
2022/10/28 01:20:39;;;;;;;18.10;6.43;;;16.50;99.90;;;;;;5094346;28;20693;-52
2022/10/28 01:23:22;;;;;;;11.93;5.75;;;16.50;99.90;;;;;;5094347;28;20885;-49
2022/10/28 01:25:50;;;;;;;19.98;5.68;;;16.50;99.90;;;;;;5094374;28;20168;-50
2022/10/28 01:28:41;;;;;;;15.65;5.65;;;16.50;99.90;;;;;;5094408;28;20683;-50
2022/10/28 01:31:36;;;;;;;12.70;6.38;;;16.50;99.90;;;;;;5094331;28;20200;-50
2022/10/28 01:34:17;;;;;;;13.10;5.70;;;16.40;99.90;;;;;;5067076;28;20250;-49
2022/10/28 01:36:49;;;;;;;13.13;6.03;;;16.50;99.90;;;;;;5094414;28;20165;-49
2022/10/28 01:39:38;;;;;;;17.73;6.22;;;16.50;99.90;;;;;;5094338;28;20162;-49
2022/10/28 01:42:29;;;;;;;17.05;5.95;;;16.40;99.90;;;;;;5093986;28;20244;-49
2022/10/28 01:45:13;;;;;;;16.40;5.30;;;16.30;99.90;;;;;;5094011;28;20172;-50
2022/10/28 01:48:00;;;;;;;12.90;6.30;;;16.30;99.90;;;;;;5093826;28;20278;-50
2022/10/28 01:50:37;;;;;;;13.10;6.25;;;16.20;99.90;;;;;;5094088;28;20181;-50
2022/10/28 01:53:08;;;;;;;10.73;7.07;;;16.20;99.90;;;;;;5093641;28;20200;-50
2022/10/28 01:55:37;;;;;;;15.15;6.63;;;16.20;99.90;;;;;;5093681;28;20202;-49
2022/10/28 01:58:04;;;;;;;14.98;6.38;;;16.10;99.90;;;;;;5092675;28;20244;-49
2022/10/28 02:00:32;;;;;;;16.90;7.03;;;16.10;99.90;;;;;;5093651;28;20244;-50
2022/10/28 02:02:58;;;;;;;10.82;5.88;;;16.10;99.90;;;;;;5093607;28;20176;-49
2022/10/28 02:05:43;;;;;;;13.73;6.50;;;16.00;99.90;;;;;;5093483;28;20656;-49
2022/10/28 02:08:24;;;;;;;11.27;6.40;;;15.90;99.90;;;;;;5093448;28;20196;-49
2022/10/28 02:11:01;;;;;;;18.23;6.70;;;16.00;99.90;;;;;;5093319;28;20169;-49
2022/10/28 02:13:43;;;;;;;13.07;6.65;;;16.00;99.90;;;;;;5093411;28;20513;-49
2022/10/28 02:16:31;;;;;;;14.10;6.68;;;16.00;99.90;;;;;;5093362;28;20179;-49
2022/10/28 02:19:05;;;;;;;11.27;6.43;;;15.90;99.90;;;;;;5075006;28;20532;-50
2022/10/28 02:21:53;;;;;;;14.75;6.68;;;16.00;99.90;;;;;;5093236;28;20158;-49
2022/10/28 02:24:32;;;;;;;10.85;5.90;;;15.90;99.90;;;;;;5093135;28;20161;-49
2022/10/28 02:27:28;;;;;;;10.50;5.70;;;16.00;99.90;;;;;;5093095;28;20166;-50
2022/10/28 02:30:05;;;;;;;12.13;6.15;;;16.00;99.90;;;;;;5084640;28;20185;-50
2022/10/28 02:32:37;;;;;;;13.13;5.90;;;15.90;99.90;;;;;;5092811;28;20651;-50
2022/10/28 02:35:06;;;;;;;9.52;5.72;;;15.90;99.90;;;;;;5093221;28;20523;-50
2022/10/28 02:37:37;;;;;;;13.27;6.00;;;15.90;99.90;;;;;;5093172;28;20173;-50
2022/10/28 02:40:08;;;;;;;12.98;5.72;;;16.00;99.90;;;;;;5092824;28;20157;-50
2022/10/28 02:42:37;;;;;;;12.05;6.00;;;16.00;99.90;;;;;;5092853;28;20593;-50
2022/10/28 02:45:26;;;;;;;22.58;6.88;;;15.80;99.90;;;;;;5093082;28;20173;-49
2022/10/28 02:47:57;;;;;;;9.45;6.20;;;15.80;99.90;;;;;;5092713;28;20158;-50
2022/10/28 02:50:30;;;;;;;11.70;6.20;;;15.80;99.90;;;;;;5093895;28;20541;-50
2022/10/28 02:52:59;;;;;;;10.57;5.50;;;15.90;99.90;;;;;;5112630;28;20204;-50
2022/10/28 02:55:28;;;;;;;11.55;5.90;;;15.90;99.90;;;;;;5112864;28;20188;-50
2022/10/28 02:57:56;;;;;;;9.65;4.93;;;15.90;99.90;;;;;;5112746;28;20260;-49
2022/10/28 03:00:23;;;;;;;16.02;6.07;;;16.00;99.90;;;;;;5112857;28;20217;-50
2022/10/28 03:02:49;;;;;;;13.90;5.97;;;16.00;99.90;;;;;;5113094;28;20171;-49
2022/10/28 03:05:16;;;;;;;14.40;6.15;;;16.00;99.90;;;;;;5112744;28;20173;-50
2022/10/28 03:07:42;;;;;;;12.68;5.75;;;16.10;99.90;;;;;;5113093;28;20167;-50
2022/10/28 03:10:08;;;;;;;14.15;4.97;;;16.00;99.90;;;;;;5112467;28;20620;-49
2022/10/28 03:12:33;;;;;;;10.93;5.82;;;16.00;99.90;;;;;;5112509;28;20254;-50
2022/10/28 03:15:00;;;;;;;17.08;5.07;;;16.10;99.90;;;;;;5112643;28;20645;-50
2022/10/28 03:17:26;;;;;;;12.48;5.07;;;15.90;99.90;;;;;;5112507;28;20160;-51
2022/10/28 03:19:51;;;;;;;19.25;5.60;;;15.90;99.90;;;;;;5112558;28;20569;-50
2022/10/28 03:22:17;;;;;;;11.07;5.90;;;16.00;99.90;;;;;;5112444;28;20164;-50
2022/10/28 03:24:42;;;;;;;16.10;5.88;;;15.90;99.90;;;;;;5113025;28;20165;-50
2022/10/28 03:27:08;;;;;;;15.43;6.45;;;15.90;99.90;;;;;;5112409;28;20173;-49
2022/10/28 03:29:33;;;;;;;12.90;5.95;;;15.90;99.90;;;;;;5112300;28;20635;-50
2022/10/28 03:31:59;;;;;;;14.25;6.60;;;15.90;99.90;;;;;;5112213;28;20200;-49
2022/10/28 03:34:24;;;;;;;14.68;6.10;;;16.00;99.90;;;;;;5112302;28;20164;-49
2022/10/28 03:36:50;;;;;;;15.57;5.93;;;15.90;99.90;;;;;;5112180;28;20172;-50
2022/10/28 03:39:16;;;;;;;15.80;6.10;;;15.90;99.90;;;;;;5112410;28;20168;-49
2022/10/28 03:41:41;;;;;;;13.57;6.10;;;15.90;99.90;;;;;;5112661;28;20161;-49
2022/10/28 03:44:07;;;;;;;14.63;6.20;;;15.90;99.90;;;;;;5112207;28;20227;-50
2022/10/28 03:46:32;;;;;;;14.85;6.28;;;15.80;99.90;;;;;;5112089;28;20194;-49
2022/10/28 03:48:58;;;;;;;19.00;6.60;;;15.80;99.90;;;;;;5112198;28;20168;-50
2022/10/28 03:51:23;;;;;;;18.38;6.15;;;15.70;99.90;;;;;;5111986;28;20200;-50
2022/10/28 03:53:49;;;;;;;10.05;6.07;;;15.80;99.90;;;;;;5112341;28;20172;-50
2022/10/28 03:56:14;;;;;;;16.15;5.95;;;15.70;99.90;;;;;;5112034;28;20168;-50
2022/10/28 03:58:40;;;;;;;10.82;5.53;;;15.80;99.90;;;;;;5112384;28;20227;-50
2022/10/28 04:01:05;;;;;;;9.85;5.40;;;15.80;99.90;;;;;;5112065;28;20533;-50
2022/10/28 04:03:31;;;;;;;21.20;5.95;;;15.60;99.90;;;;;;5111963;28;20591;-49
2022/10/28 04:05:57;;;;;;;12.15;5.50;;;15.70;99.90;;;;;;5111943;28;20175;-52
2022/10/28 04:08:22;;;;;;;17.40;5.60;;;15.70;99.90;;;;;;5112154;28;20192;-52
2022/10/28 04:10:48;;;;;;;16.25;6.03;;;15.60;99.90;;;;;;5111855;28;20627;-52
2022/10/28 04:13:14;;;;;;;13.93;6.55;;;15.60;99.90;;;;;;5111925;28;20188;-52
2022/10/28 04:15:40;;;;;;;13.52;5.80;;;15.60;99.90;;;;;;5112269;28;20654;-50
2022/10/28 04:18:06;;;;;;;13.35;6.07;;;15.60;99.90;;;;;;5112156;28;20248;-50
2022/10/28 04:20:32;;;;;;;9.70;5.32;;;15.60;99.90;;;;;;5112908;28;20182;-51
2022/10/28 04:22:57;;;;;;;14.90;6.15;;;15.60;99.90;;;;;;5115832;28;20157;-50
2022/10/28 04:25:26;;;;;;;13.23;5.93;;;15.60;99.90;;;;;;5115852;28;20176;-51
2022/10/28 04:27:52;;;;;;;15.05;5.78;;;15.50;99.90;;;;;;5115787;28;20570;-49
2022/10/28 04:30:17;;;;;;;13.02;5.53;;;15.50;99.90;;;;;;5115685;28;20161;-50
2022/10/28 04:32:43;;;;;;;13.63;6.32;;;15.60;99.90;;;;;;5116185;28;20207;-52
2022/10/28 04:35:10;;;;;;;14.48;6.53;;;15.60;99.90;;;;;;5116028;28;20194;-51
2022/10/28 04:37:36;;;;;;;12.00;5.93;;;15.60;99.90;;;;;;5115465;28;20169;-50
2022/10/28 04:40:03;;;;;;;12.98;6.22;;;15.60;99.90;;;;;;5115554;28;20165;-51
2022/10/28 04:42:28;;;;;;;13.25;5.82;;;15.70;99.90;;;;;;5115502;28;20223;-50
2022/10/28 04:44:54;;;;;;;12.98;5.65;;;15.70;99.90;;;;;;5115503;28;20165;-50
2022/10/28 04:47:19;;;;;;;15.55;5.68;;;15.70;99.90;;;;;;5115441;28;20251;-50
2022/10/28 04:49:45;;;;;;;11.77;5.40;;;15.60;99.90;;;;;;5115322;28;20598;-49
2022/10/28 04:52:11;;;;;;;15.63;5.93;;;15.70;99.90;;;;;;5115241;28;20552;-50
2022/10/28 04:54:36;;;;;;;13.20;5.70;;;15.70;99.90;;;;;;5114988;28;20165;-50
2022/10/28 04:57:02;;;;;;;13.32;5.95;;;15.70;99.90;;;;;;5115445;28;20173;-52
2022/10/28 04:59:28;;;;;;;16.60;6.50;;;15.70;99.90;;;;;;5115008;28;20208;-51
2022/10/28 05:01:53;;;;;;;14.52;6.38;;;15.70;99.90;;;;;;5115117;28;20172;-50
2022/10/28 05:04:19;;;;;;;28.23;11.70;;;15.70;99.90;;;;;;5115069;28;20194;-50
2022/10/28 05:06:44;;;;;;;23.83;8.85;;;15.70;99.90;;;;;;5114977;28;20172;-50
2022/10/28 05:09:10;;;;;;;31.50;12.40;;;15.70;99.90;;;;;;5115486;28;20217;-50
2022/10/28 05:11:36;;;;;;;19.67;7.30;;;15.80;99.90;;;;;;5114977;28;20190;-50
2022/10/28 05:14:01;;;;;;;17.70;7.55;;;15.70;99.90;;;;;;5114965;28;20257;-50
2022/10/28 05:16:27;;;;;;;10.55;6.63;;;15.80;99.90;;;;;;5114925;28;20198;-50
2022/10/28 05:18:53;;;;;;;11.38;5.90;;;15.80;99.90;;;;;;5114876;28;20175;-50
2022/10/28 05:21:18;;;;;;;13.05;6.43;;;15.90;99.90;;;;;;5114792;28;20532;-50
2022/10/28 05:23:44;;;;;;;13.75;6.20;;;15.90;99.90;;;;;;5114766;28;20210;-50
2022/10/28 05:26:09;;;;;;;18.70;5.85;;;15.90;99.90;;;;;;5115245;28;20222;-50
2022/10/28 05:28:35;;;;;;;16.02;6.32;;;15.80;99.90;;;;;;5114584;28;20624;-50
2022/10/28 05:31:00;;;;;;;10.98;6.50;;;15.80;99.90;;;;;;5114549;28;20176;-49
2022/10/28 05:33:26;;;;;;;18.33;7.13;;;15.90;99.90;;;;;;5114389;28;20187;-50
2022/10/28 05:35:52;;;;;;;16.65;6.60;;;15.80;99.90;;;;;;5096144;28;20164;-50
2022/10/28 05:38:17;;;;;;;9.35;5.10;;;15.70;99.90;;;;;;5114457;28;20247;-49
2022/10/28 05:40:43;;;;;;;14.50;5.53;;;15.70;99.90;;;;;;5114278;28;20285;-49
2022/10/28 05:43:09;;;;;;;16.80;9.88;;;15.60;99.90;;;;;;5114694;28;20169;-49
2022/10/28 05:45:35;;;;;;;15.95;7.78;;;15.70;99.90;;;;;;5114473;28;20180;-49
2022/10/28 05:48:00;;;;;;;13.63;7.57;;;15.70;99.90;;;;;;5114093;28;20248;-50
2022/10/28 05:50:26;;;;;;;17.90;5.72;;;15.70;99.90;;;;;;5095613;28;20634;-49
2022/10/28 05:52:54;;;;;;;13.57;5.93;;;15.70;99.90;;;;;;5113922;28;20196;-50
2022/10/28 05:55:21;;;;;;;13.98;5.70;;;15.60;99.90;;;;;;5114215;28;20173;-49
2022/10/28 05:57:51;;;;;;;19.55;6.40;;;15.70;99.90;;;;;;5113624;28;20175;-49
2022/10/28 06:00:19;;;;;;;15.98;7.45;;;15.60;99.90;;;;;;5113715;28;20535;-49
2022/10/28 06:02:44;;;;;;;13.85;6.22;;;15.60;99.90;;;;;;5113830;28;20249;-49
2022/10/28 06:05:11;;;;;;;13.00;5.65;;;15.70;99.90;;;;;;5114722;28;20512;-49
2022/10/28 06:07:38;;;;;;;16.77;6.90;;;15.60;99.90;;;;;;5113855;28;20198;-49
2022/10/28 06:10:05;;;;;;;16.08;6.18;;;15.60;99.90;;;;;;5113688;28;20160;-49
2022/10/28 06:12:31;;;;;;;10.40;5.90;;;15.60;99.90;;;;;;5113598;28;20586;-49
2022/10/28 06:14:56;;;;;;;16.92;5.75;;;15.70;99.90;;;;;;5113516;28;20175;-50
2022/10/28 06:17:22;;;;;;;12.30;4.88;;;15.70;99.90;;;;;;5113905;28;20218;-49
2022/10/28 06:19:48;;;;;;;14.07;6.65;;;15.60;99.90;;;;;;5113545;28;20175;-50
2022/10/28 06:22:13;;;;;;;13.18;5.50;;;15.70;99.90;;;;;;5113556;28;20176;-50
2022/10/28 06:24:39;;;;;;;14.00;6.50;;;15.50;99.90;;;;;;5113869;28;20168;-50
2022/10/28 06:27:05;;;;;;;14.75;5.85;;;15.60;99.90;;;;;;5113452;28;20528;-51
2022/10/28 06:29:32;;;;;;;9.35;5.88;;;15.60;99.90;;;;;;5113633;28;20245;-49
2022/10/28 06:31:57;;;;;;;18.52;5.97;;;15.70;99.90;;;;;;5113282;28;20216;-50
2022/10/28 06:34:23;;;;;;;12.30;6.03;;;15.60;99.90;;;;;;5113338;28;20169;-49
2022/10/28 06:36:48;;;;;;;10.55;5.40;;;15.60;99.90;;;;;;5113181;28;20173;-50
2022/10/28 06:39:14;;;;;;;10.80;5.35;;;15.60;99.90;;;;;;5113153;28;20169;-48
2022/10/28 06:41:39;;;;;;;10.02;5.30;;;15.70;99.90;;;;;;5113454;28;20161;-49
2022/10/28 06:44:05;;;;;;;12.43;5.65;;;15.60;99.90;;;;;;5112441;28;20173;-49
2022/10/28 06:46:31;;;;;;;14.95;5.78;;;15.70;99.90;;;;;;5113288;28;20248;-49
2022/10/28 06:48:56;;;;;;;18.17;5.18;;;15.60;99.90;;;;;;5113039;28;20165;-49
2022/10/28 06:51:23;;;;;;;16.05;6.03;;;15.70;99.90;;;;;;5113139;28;20200;-49
2022/10/28 06:53:51;;;;;;;15.82;6.72;;;15.70;99.90;;;;;;5112919;28;20223;-49
2022/10/28 06:56:18;;;;;;;12.05;5.45;;;15.80;99.90;;;;;;5112912;28;20165;-49
2022/10/28 06:58:43;;;;;;;11.98;6.55;;;15.80;99.90;;;;;;5112731;28;20220;-49
2022/10/28 07:01:09;;;;;;;14.25;6.18;;;15.80;99.90;;;;;;5107225;28;20177;-49
2022/10/28 07:03:35;;;;;;;10.18;5.43;;;15.80;99.90;;;;;;5072927;28;20633;-49
2022/10/28 07:06:00;;;;;;;12.45;5.35;;;15.80;99.90;;;;;;5091014;28;20170;-50
2022/10/28 07:08:27;;;;;;;13.90;6.68;;;15.80;99.90;;;;;;5090900;28;20252;-50
2022/10/28 07:10:57;;;;;;;17.88;6.65;;;15.80;99.90;;;;;;5090734;28;20173;-50
2022/10/28 07:13:24;;;;;;;20.15;7.38;;;15.90;99.90;;;;;;5090992;28;20239;-50
2022/10/28 07:15:51;;;;;;;19.77;7.13;;;15.90;99.90;;;;;;5097510;28;20165;-50
2022/10/28 07:18:16;;;;;;;13.45;6.65;;;15.90;99.90;;;;;;5111160;28;20215;-49
2022/10/28 07:20:42;;;;;;;17.13;6.28;;;16.00;99.90;;;;;;5110729;28;20585;-48
2022/10/28 07:23:08;;;;;;;13.40;5.85;;;16.00;99.90;;;;;;5111130;28;20168;-51
2022/10/28 07:25:33;;;;;;;16.83;6.75;;;16.10;99.90;;;;;;5110783;28;20172;-51
2022/10/28 07:27:59;;;;;;;15.02;5.90;;;16.20;99.90;;;;;;5110862;28;20165;-51
2022/10/28 07:30:26;;;;;;;14.73;6.38;;;16.20;99.90;;;;;;5110841;28;20305;-51
2022/10/28 07:32:52;;;;;;;10.68;5.07;;;16.20;99.90;;;;;;5110672;28;20200;-51
2022/10/28 07:35:18;;;;;;;17.77;5.90;;;16.20;99.90;;;;;;5110629;28;20231;-51
2022/10/28 07:37:44;;;;;;;12.80;6.13;;;16.20;99.90;;;;;;5111020;28;20310;-51
2022/10/28 07:40:09;;;;;;;11.63;6.20;;;16.30;99.90;;;;;;5111119;28;20239;-51
2022/10/28 07:42:35;;;;;;;12.63;6.88;;;16.40;99.90;;;;;;5110993;28;20179;-51
2022/10/28 07:45:01;;;;;;;13.10;6.40;;;16.50;99.90;;;;;;5110884;28;20270;-51
2022/10/28 07:47:27;;;;;;;13.48;6.40;;;16.40;99.90;;;;;;5110736;28;20168;-50
2022/10/28 07:49:53;;;;;;;12.18;5.88;;;16.50;99.90;;;;;;5110668;28;20168;-50
2022/10/28 07:52:19;;;;;;;10.60;6.03;;;16.60;99.90;;;;;;5110915;28;20285;-51
2022/10/28 07:54:45;;;;;;;19.95;7.47;;;16.60;99.90;;;;;;5110554;28;20165;-50
2022/10/28 07:59:36;;;;;;;16.02;6.53;;;16.60;99.90;;;;;;5113418;28;20231;-50
2022/10/28 08:02:03;;;;;;;23.75;6.32;;;16.80;99.90;;;;;;5115058;28;20565;-50
2022/10/28 08:04:29;;;;;;;17.30;6.75;;;16.80;99.90;;;;;;5114437;28;20179;-50
2022/10/28 08:06:56;;;;;;;15.57;6.47;;;16.80;99.90;;;;;;5114711;28;20211;-51
2022/10/28 08:09:21;;;;;;;21.10;6.43;;;16.90;99.90;;;;;;5114559;28;20627;-50
2022/10/28 08:11:47;;;;;;;14.32;6.38;;;17.00;99.90;;;;;;5114502;28;20210;-51
2022/10/28 08:14:12;;;;;;;15.20;5.82;;;16.90;99.90;;;;;;5114887;28;20252;-51
2022/10/28 08:16:38;;;;;;;19.15;7.75;;;17.00;99.90;;;;;;5114611;28;20169;-50
2022/10/28 08:19:04;;;;;;;12.50;6.30;;;17.00;99.90;;;;;;5114423;28;20195;-50
2022/10/28 08:21:29;;;;;;;17.48;6.53;;;17.00;99.90;;;;;;5114721;28;20169;-51
2022/10/28 08:23:55;;;;;;;20.65;7.95;;;17.00;99.90;;;;;;5114341;28;20225;-51
2022/10/28 08:26:21;;;;;;;17.00;7.63;;;17.40;99.90;;;;;;5114091;28;20168;-51
2022/10/28 08:28:46;;;;;;;18.40;6.38;;;17.00;99.90;;;;;;5114481;28;20180;-51
2022/10/28 08:31:12;;;;;;;16.05;7.22;;;17.00;99.90;;;;;;5114428;28;20172;-50
2022/10/28 08:33:41;;;;;;;15.45;7.13;;;17.00;99.90;;;;;;5114328;28;20310;-50
2022/10/28 08:36:08;;;;;;;11.38;6.43;;;16.90;99.90;;;;;;5114235;28;20206;-51
2022/10/28 08:38:34;;;;;;;14.85;6.40;;;17.00;99.90;;;;;;5114160;28;20639;-51
2022/10/28 08:41:19;;;;;;;17.30;7.60;;;17.10;99.90;;;;;;5114171;28;20175;-50
2022/10/28 08:43:45;;;;;;;14.45;6.47;;;17.10;99.90;;;;;;5114337;28;20632;-50
2022/10/28 08:46:10;;;;;;;13.90;6.88;;;17.10;99.90;;;;;;5114569;28;20164;-51
2022/10/28 08:48:36;;;;;;;15.48;6.25;;;17.10;99.90;;;;;;5113934;28;20200;-51
2022/10/28 08:51:35;;;;;;;20.30;6.63;;;14.60;99.90;;;;;;5095479;28;20161;-50
2022/10/28 08:54:05;;;;;;;18.65;6.40;;;17.50;99.90;;;;;;5113754;28;20173;-51
2022/10/28 08:56:36;;;;;;;21.38;7.82;;;17.70;99.90;;;;;;5113781;28;20160;-50
2022/10/28 08:59:05;;;;;;;13.57;5.60;;;17.90;99.90;;;;;;5113623;28;20589;-51
2022/10/28 09:01:47;;;;;;;12.52;5.68;;;18.10;99.90;;;;;;5095394;28;20281;-51
2022/10/28 09:04:26;;;;;;;16.52;6.70;;;18.20;99.90;;;;;;5114004;28;20161;-50
2022/10/28 09:06:52;;;;;;;18.80;7.35;;;18.40;99.90;;;;;;5113017;28;20241;-51
2022/10/28 09:09:21;;;;;;;16.10;5.65;;;18.50;99.90;;;;;;5113428;28;20601;-50
2022/10/28 09:12:35;;;;;;;13.38;5.32;;;18.60;99.90;;;;;;5113654;28;20204;-50
2022/10/28 09:15:32;;;;;;;16.80;5.53;;;18.70;99.90;;;;;;5107098;28;20180;-50
2022/10/28 09:18:25;;;;;;;13.38;5.50;;;18.90;99.90;;;;;;5113364;28;20160;-50
2022/10/28 09:20:56;;;;;;;14.43;5.30;;;19.00;99.90;;;;;;5113363;28;20179;-50
2022/10/28 09:23:35;;;;;;;11.95;5.85;;;19.10;99.90;;;;;;5113270;28;20168;-51
2022/10/28 09:26:36;;;;;;;13.57;5.50;;;19.30;99.90;;;;;;5113253;28;20191;-51
2022/10/28 09:29:25;;;;;;;11.88;6.22;;;19.40;99.90;;;;;;5112967;28;20285;-50
2022/10/28 09:32:17;;;;;;;20.00;5.72;;;19.50;99.90;;;;;;5113131;28;20270;-50
2022/10/28 09:34:47;;;;;;;15.40;5.38;;;19.50;99.90;;;;;;5113204;28;20508;-50
2022/10/28 09:37:24;;;;;;;14.27;5.78;;;19.40;99.90;;;;;;5113206;28;20198;-51
2022/10/28 09:39:54;;;;;;;15.35;4.97;;;19.40;99.90;;;;;;5112477;28;20754;-50
2022/10/28 09:42:26;;;;;;;15.05;6.78;;;19.60;99.90;;;;;;5112881;28;20217;-51
2022/10/28 09:45:00;;;;;;;15.88;5.53;;;19.60;99.90;;;;;;5095167;28;20165;-50
2022/10/28 09:48:04;;;;;;;15.05;5.72;;;19.70;99.90;;;;;;5112574;28;20168;-50
2022/10/28 09:50:31;;;;;;;16.67;5.55;;;19.90;99.90;;;;;;5100299;28;20181;-51
2022/10/28 09:53:09;;;;;;;17.42;5.40;;;20.00;99.90;;;;;;5112412;28;20215;-50
2022/10/28 09:55:35;;;;;;;16.23;5.43;;;20.10;99.90;;;;;;5112354;28;20160;-50
2022/10/28 09:58:05;;;;;;;16.30;6.07;;;20.00;99.90;;;;;;5083659;28;20193;-50
2022/10/28 10:00:31;;;;;;;13.45;5.55;;;20.00;99.90;;;;;;5091925;28;20245;-50
2022/10/28 10:02:57;;;;;;;11.18;5.05;;;20.10;99.90;;;;;;5092236;28;20223;-50
2022/10/28 10:05:24;;;;;;;18.65;5.95;;;20.20;99.90;;;;;;5092146;28;20169;-50
2022/10/28 10:07:51;;;;;;;15.90;5.50;;;20.30;99.90;;;;;;5091827;28;20572;-50
2022/10/28 10:10:21;;;;;;;17.40;5.88;;;20.30;99.90;;;;;;5091731;28;20621;-51
2022/10/28 10:12:50;;;;;;;10.55;5.15;;;20.30;99.90;;;;;;5091571;28;20617;-50
2022/10/28 10:15:28;;;;;;;13.68;5.75;;;20.30;99.90;;;;;;5091636;28;20185;-51
2022/10/28 10:17:55;;;;;;;13.70;5.88;;;20.40;99.90;;;;;;5090768;28;20177;-50
2022/10/28 10:20:21;;;;;;;13.38;5.57;;;20.50;99.90;;;;;;5091581;28;20173;-51
2022/10/28 10:22:48;;;;;;;12.95;5.50;;;20.60;99.90;;;;;;5091674;28;20287;-51
2022/10/28 10:25:16;;;;;;;15.55;6.15;;;20.70;99.90;;;;;;5091916;28;20562;-50
2022/10/28 10:28:08;;;;;;;15.00;5.57;;;20.70;99.90;;;;;;5092013;28;20178;-50
2022/10/28 10:30:43;;;;;;;13.95;5.55;;;20.60;99.90;;;;;;5080171;28;20205;-51
2022/10/28 10:33:19;;;;;;;12.13;5.53;;;20.80;99.90;;;;;;5090379;28;20766;-50
2022/10/28 10:35:52;;;;;;;13.30;5.03;;;21.00;99.90;;;;;;5092319;28;20263;-51
2022/10/28 10:38:18;;;;;;;13.77;6.05;;;21.10;99.90;;;;;;5111038;28;20639;-51
2022/10/28 10:40:49;;;;;;;12.20;5.32;;;21.10;99.90;;;;;;5111904;28;20167;-52
2022/10/28 10:43:28;;;;;;;9.90;4.75;;;21.20;99.90;;;;;;5111973;28;20168;-51
2022/10/28 10:46:05;;;;;;;11.02;4.50;;;21.30;99.90;;;;;;5109462;28;20218;-51
2022/10/28 10:48:37;;;;;;;13.27;4.20;;;21.20;99.90;;;;;;5111789;28;20173;-52
2022/10/28 10:51:10;;;;;;;11.85;4.55;;;21.10;99.90;;;;;;5111467;28;20188;-52
2022/10/28 10:53:38;;;;;;;9.27;3.90;;;21.40;99.90;;;;;;5111358;28;20168;-52
2022/10/28 10:56:07;;;;;;;11.23;4.40;;;21.70;99.90;;;;;;5111139;28;20176;-52
2022/10/28 10:58:39;;;;;;;9.40;3.83;;;21.80;99.90;;;;;;5111633;28;20753;-51
2022/10/28 11:01:06;;;;;;;13.45;4.35;;;22.10;99.90;;;;;;5111279;28;20715;-51
2022/10/28 11:03:58;;;;;;;10.52;3.75;;;22.10;99.90;;;;;;5111632;28;20180;-51
2022/10/28 11:06:29;;;;;;;11.63;3.83;;;22.10;99.90;;;;;;5110005;28;20618;-51
2022/10/28 11:09:01;;;;;;;13.63;3.42;;;22.30;99.90;;;;;;5109756;28;20198;-51
2022/10/28 11:11:39;;;;;;;14.00;4.15;;;22.50;99.90;;;;;;5110248;28;20199;-51
2022/10/28 11:14:08;;;;;;;13.15;4.13;;;22.70;99.90;;;;;;5110517;28;20215;-52
2022/10/28 11:16:47;;;;;;;10.10;4.10;;;22.80;99.90;;;;;;5110929;28;20175;-52
2022/10/28 11:19:22;;;;;;;21.58;4.38;;;22.90;99.90;;;;;;5111762;28;20172;-52
2022/10/28 11:21:56;;;;;;;11.65;4.22;;;22.80;99.90;;;;;;5110666;28;20160;-52
2022/10/28 11:24:50;;;;;;;12.68;3.92;;;22.90;99.90;;;;;;5110954;28;20168;-51
2022/10/28 11:27:25;;;;;;;13.13;4.20;;;23.00;99.90;;;;;;5110686;28;20156;-52
2022/10/28 11:29:50;;;;;;;11.40;3.80;;;23.10;99.90;;;;;;5108049;28;20182;-52
2022/10/28 11:32:42;;;;;;;10.90;3.85;;;23.20;99.90;;;;;;5110137;28;20212;-52
2022/10/28 11:35:26;;;;;;;12.38;4.05;;;23.20;99.90;;;;;;5110949;28;20263;-52
2022/10/28 11:38:24;;;;;;;9.43;3.90;;;23.20;99.90;;;;;;5110540;28;20156;-52
2022/10/28 11:41:14;;;;;;;12.98;3.85;;;23.20;99.90;;;;;;5078743;28;20190;-52
2022/10/28 11:43:54;;;;;;;10.88;4.63;;;23.30;99.90;;;;;;5108570;28;20168;-51
2022/10/28 11:46:47;;;;;;;12.98;3.38;;;23.40;99.90;;;;;;5110633;28;20172;-52
2022/10/28 11:49:28;;;;;;;17.90;4.28;;;23.40;99.90;;;;;;5110931;28;20164;-52
2022/10/28 11:52:18;;;;;;;13.27;3.75;;;23.40;99.90;;;;;;5110575;28;20253;-52
2022/10/28 11:55:04;;;;;;;13.55;3.40;;;23.40;99.90;;;;;;5111186;28;20160;-52
2022/10/28 11:57:58;;;;;;;10.68;4.53;;;23.50;99.90;;;;;;5110972;28;20272;-52
2022/10/28 12:00:48;;;;;;;10.52;4.13;;;23.60;99.90;;;;;;5110265;28;20220;-52
2022/10/28 12:03:47;;;;;;;21.08;4.00;;;23.70;99.90;;;;;;5110821;28;20176;-52
2022/10/28 12:06:42;;;;;;;14.85;4.93;;;23.80;99.90;;;;;;5110933;28;20188;-52
2022/10/28 12:09:23;;;;;;;13.13;4.75;;;23.90;99.90;;;;;;5037581;28;20222;-52
2022/10/28 12:12:11;;;;;;;8.50;3.72;;;23.90;99.90;;;;;;5110421;28;20214;-52
2022/10/28 12:14:47;;;;;;;15.25;3.92;;;23.90;99.90;;;;;;5110502;28;20201;-52
2022/10/28 12:17:46;;;;;;;18.50;4.47;;;23.90;99.90;;;;;;5110819;28;20665;-52
2022/10/28 12:20:44;;;;;;;11.32;3.72;;;23.90;99.90;;;;;;5092906;28;20208;-52
2022/10/28 12:23:17;;;;;;;15.70;4.85;;;23.90;99.90;;;;;;5083339;28;20184;-52
2022/10/28 12:25:47;;;;;;;11.18;4.70;;;23.90;99.90;;;;;;5110663;28;20179;-52
2022/10/28 12:28:30;;;;;;;11.57;4.38;;;23.90;99.90;;;;;;5092546;28;20164;-52
2022/10/28 12:30:57;;;;;;;16.25;4.63;;;23.90;99.90;;;;;;5110431;28;20511;-52
2022/10/28 12:33:43;;;;;;;10.65;4.25;;;23.80;99.90;;;;;;5110249;28;20284;-50
2022/10/28 12:36:11;;;;;;;12.10;4.90;;;23.80;99.90;;;;;;5110327;28;20632;-49
2022/10/28 12:38:43;;;;;;;15.68;4.45;;;23.90;99.90;;;;;;5110469;28;20247;-51
2022/10/28 12:41:17;;;;;;;15.52;6.38;;;23.90;99.90;;;;;;5110432;28;20218;-49
2022/10/28 12:43:58;;;;;;;15.90;5.13;;;23.90;99.90;;;;;;5114498;28;20182;-50
2022/10/28 12:46:39;;;;;;;8.10;3.50;;;23.90;99.90;;;;;;5113870;28;20176;-50
2022/10/28 12:49:15;;;;;;;14.23;4.97;;;23.80;99.90;;;;;;5113733;28;20643;-50
2022/10/28 12:51:41;;;;;;;22.55;5.70;;;23.80;99.90;;;;;;5114230;28;20196;-49
2022/10/28 12:54:35;;;;;;;12.15;4.28;;;23.80;99.90;;;;;;5113630;28;20172;-50
2022/10/28 12:57:09;;;;;;;18.70;5.85;;;23.80;99.90;;;;;;5113534;28;20168;-50
2022/10/28 12:59:41;;;;;;;17.42;5.78;;;23.70;99.90;;;;;;5113604;28;20215;-52
2022/10/28 13:02:15;;;;;;;14.95;5.70;;;23.70;99.90;;;;;;5095249;28;20251;-52